sensor_id;sensor_type;location;lat;lon;timestamp;P1;durP1;ratioP1;P2;durP2;ratioP2
19388;SDS011;9830;41.876;23.474;2024-01-07T00:00:10;0.20;;;0.20;;
19388;SDS011;9830;41.876;23.474;2024-01-07T00:03:01;0.10;;;0.10;;
19388;SDS011;9830;41.876;23.474;2024-01-07T00:06:09;0.20;;;0.10;;
19388;SDS011;9830;41.876;23.474;2024-01-07T00:08:58;0.00;;;0.00;;
19388;SDS011;9830;41.876;23.474;2024-01-07T00:12:12;0.00;;;0.00;;
19388;SDS011;9830;41.876;23.474;2024-01-07T00:15:07;0.83;;;0.50;;
19388;SDS011;9830;41.876;23.474;2024-01-07T00:18:04;0.13;;;0.13;;
19388;SDS011;9830;41.876;23.474;2024-01-07T00:20:56;0.00;;;0.00;;
19388;SDS011;9830;41.876;23.474;2024-01-07T00:23:45;0.00;;;0.00;;
19388;SDS011;9830;41.876;23.474;2024-01-07T00:26:48;0.00;;;0.00;;
19388;SDS011;9830;41.876;23.474;2024-01-07T00:29:34;0.00;;;0.00;;
19388;SDS011;9830;41.876;23.474;2024-01-07T00:32:25;1.70;;;0.70;;
19388;SDS011;9830;41.876;23.474;2024-01-07T00:35:15;0.00;;;0.00;;
19388;SDS011;9830;41.876;23.474;2024-01-07T00:38:02;0.20;;;0.07;;
19388;SDS011;9830;41.876;23.474;2024-01-07T00:40:55;0.00;;;0.00;;
19388;SDS011;9830;41.876;23.474;2024-01-07T00:43:52;0.00;;;0.00;;
19388;SDS011;9830;41.876;23.474;2024-01-07T00:46:47;0.00;;;0.00;;
19388;SDS011;9830;41.876;23.474;2024-01-07T00:49:58;0.00;;;0.00;;
19388;SDS011;9830;41.876;23.474;2024-01-07T00:53:04;0.00;;;0.00;;
19388;SDS011;9830;41.876;23.474;2024-01-07T00:55:51;0.00;;;0.00;;
19388;SDS011;9830;41.876;23.474;2024-01-07T00:59:14;0.00;;;0.00;;
19388;SDS011;9830;41.876;23.474;2024-01-07T01:02:11;0.37;;;0.37;;
19388;SDS011;9830;41.876;23.474;2024-01-07T01:04:58;0.57;;;0.13;;
19388;SDS011;9830;41.876;23.474;2024-01-07T01:07:55;0.00;;;0.00;;
19388;SDS011;9830;41.876;23.474;2024-01-07T01:10:43;0.00;;;0.00;;
19388;SDS011;9830;41.876;23.474;2024-01-07T01:14:01;0.00;;;0.00;;
19388;SDS011;9830;41.876;23.474;2024-01-07T01:17:00;0.00;;;0.00;;
19388;SDS011;9830;41.876;23.474;2024-01-07T01:20:07;0.00;;;0.00;;
19388;SDS011;9830;41.876;23.474;2024-01-07T01:22:55;0.00;;;0.00;;
19388;SDS011;9830;41.876;23.474;2024-01-07T01:26:02;0.00;;;0.00;;
19388;SDS011;9830;41.876;23.474;2024-01-07T01:29:00;0.03;;;0.00;;
19388;SDS011;9830;41.876;23.474;2024-01-07T01:31:59;0.07;;;0.07;;
19388;SDS011;9830;41.876;23.474;2024-01-07T01:34:58;0.00;;;0.00;;
19388;SDS011;9830;41.876;23.474;2024-01-07T01:37:51;0.50;;;0.20;;
19388;SDS011;9830;41.876;23.474;2024-01-07T01:40:59;0.07;;;0.07;;
19388;SDS011;9830;41.876;23.474;2024-01-07T01:43:57;0.53;;;0.47;;
19388;SDS011;9830;41.876;23.474;2024-01-07T01:46:57;0.00;;;0.00;;
19388;SDS011;9830;41.876;23.474;2024-01-07T01:50:03;0.10;;;0.10;;
19388;SDS011;9830;41.876;23.474;2024-01-07T01:53:10;0.00;;;0.00;;
19388;SDS011;9830;41.876;23.474;2024-01-07T01:55:55;0.00;;;0.00;;
19388;SDS011;9830;41.876;23.474;2024-01-07T01:58:57;0.00;;;0.00;;
19388;SDS011;9830;41.876;23.474;2024-01-07T02:02:19;0.20;;;0.20;;
19388;SDS011;9830;41.876;23.474;2024-01-07T02:05:25;1.60;;;0.50;;
19388;SDS011;9830;41.876;23.474;2024-01-07T02:08:12;0.43;;;0.43;;
19388;SDS011;9830;41.876;23.474;2024-01-07T02:14:15;0.00;;;0.00;;
19388;SDS011;9830;41.876;23.474;2024-01-07T02:17:08;0.00;;;0.00;;
19388;SDS011;9830;41.876;23.474;2024-01-07T02:20:19;0.00;;;0.00;;
19388;SDS011;9830;41.876;23.474;2024-01-07T02:23:18;0.00;;;0.00;;
19388;SDS011;9830;41.876;23.474;2024-01-07T02:26:29;0.20;;;0.10;;
19388;SDS011;9830;41.876;23.474;2024-01-07T02:29:53;0.00;;;0.00;;
19388;SDS011;9830;41.876;23.474;2024-01-07T02:32:52;0.30;;;0.30;;
19388;SDS011;9830;41.876;23.474;2024-01-07T02:35:49;0.00;;;0.00;;
19388;SDS011;9830;41.876;23.474;2024-01-07T02:38:42;0.00;;;0.00;;
19388;SDS011;9830;41.876;23.474;2024-01-07T02:41:28;0.00;;;0.00;;
19388;SDS011;9830;41.876;23.474;2024-01-07T02:44:22;0.10;;;0.10;;
19388;SDS011;9830;41.876;23.474;2024-01-07T02:47:09;0.00;;;0.00;;
19388;SDS011;9830;41.876;23.474;2024-01-07T02:50:12;0.37;;;0.37;;
19388;SDS011;9830;41.876;23.474;2024-01-07T02:53:02;0.00;;;0.00;;
19388;SDS011;9830;41.876;23.474;2024-01-07T02:55:55;0.00;;;0.00;;
19388;SDS011;9830;41.876;23.474;2024-01-07T02:59:05;0.00;;;0.00;;
19388;SDS011;9830;41.876;23.474;2024-01-07T03:02:02;0.00;;;0.00;;
19388;SDS011;9830;41.876;23.474;2024-01-07T03:05:03;0.00;;;0.00;;
19388;SDS011;9830;41.876;23.474;2024-01-07T03:07:53;0.00;;;0.00;;
19388;SDS011;9830;41.876;23.474;2024-01-07T03:11:04;1.70;;;0.63;;
19388;SDS011;9830;41.876;23.474;2024-01-07T03:14:03;0.00;;;0.00;;
19388;SDS011;9830;41.876;23.474;2024-01-07T03:16:53;0.00;;;0.00;;
19388;SDS011;9830;41.876;23.474;2024-01-07T03:19:54;0.00;;;0.00;;
19388;SDS011;9830;41.876;23.474;2024-01-07T03:23:00;0.00;;;0.00;;
19388;SDS011;9830;41.876;23.474;2024-01-07T03:25:51;0.00;;;0.00;;
19388;SDS011;9830;41.876;23.474;2024-01-07T03:28:54;0.00;;;0.00;;
19388;SDS011;9830;41.876;23.474;2024-01-07T03:31:47;0.00;;;0.00;;
19388;SDS011;9830;41.876;23.474;2024-01-07T03:34:45;0.20;;;0.20;;
19388;SDS011;9830;41.876;23.474;2024-01-07T03:37:44;0.00;;;0.00;;
19388;SDS011;9830;41.876;23.474;2024-01-07T03:40:26;0.00;;;0.00;;
19388;SDS011;9830;41.876;23.474;2024-01-07T03:43:26;0.00;;;0.00;;
19388;SDS011;9830;41.876;23.474;2024-01-07T03:46:25;0.00;;;0.00;;
19388;SDS011;9830;41.876;23.474;2024-01-07T03:49:21;0.00;;;0.00;;
19388;SDS011;9830;41.876;23.474;2024-01-07T03:52:32;0.00;;;0.00;;
19388;SDS011;9830;41.876;23.474;2024-01-07T03:55:32;0.00;;;0.00;;
19388;SDS011;9830;41.876;23.474;2024-01-07T03:58:16;0.20;;;0.20;;
19388;SDS011;9830;41.876;23.474;2024-01-07T04:01:01;0.00;;;0.00;;
19388;SDS011;9830;41.876;23.474;2024-01-07T04:03:53;0.10;;;0.10;;
19388;SDS011;9830;41.876;23.474;2024-01-07T04:07:03;0.00;;;0.00;;
19388;SDS011;9830;41.876;23.474;2024-01-07T04:09:51;0.00;;;0.00;;
19388;SDS011;9830;41.876;23.474;2024-01-07T04:12:55;0.00;;;0.00;;
19388;SDS011;9830;41.876;23.474;2024-01-07T04:15:47;0.30;;;0.10;;
19388;SDS011;9830;41.876;23.474;2024-01-07T04:18:32;0.07;;;0.07;;
19388;SDS011;9830;41.876;23.474;2024-01-07T04:21:25;2.43;;;0.93;;
19388;SDS011;9830;41.876;23.474;2024-01-07T04:24:40;0.00;;;0.00;;
19388;SDS011;9830;41.876;23.474;2024-01-07T04:27:44;0.00;;;0.00;;
19388;SDS011;9830;41.876;23.474;2024-01-07T04:30:42;0.00;;;0.00;;
19388;SDS011;9830;41.876;23.474;2024-01-07T04:33:25;0.10;;;0.10;;
19388;SDS011;9830;41.876;23.474;2024-01-07T04:36:14;0.00;;;0.00;;
19388;SDS011;9830;41.876;23.474;2024-01-07T04:39:00;0.33;;;0.33;;
19388;SDS011;9830;41.876;23.474;2024-01-07T04:41:54;3.30;;;0.17;;
19388;SDS011;9830;41.876;23.474;2024-01-07T04:44:45;0.20;;;0.20;;
19388;SDS011;9830;41.876;23.474;2024-01-07T04:47:42;0.00;;;0.00;;
19388;SDS011;9830;41.876;23.474;2024-01-07T04:53:36;0.33;;;0.30;;
19388;SDS011;9830;41.876;23.474;2024-01-07T04:56:29;0.03;;;0.03;;
19388;SDS011;9830;41.876;23.474;2024-01-07T04:59:21;0.13;;;0.13;;
19388;SDS011;9830;41.876;23.474;2024-01-07T05:05:32;0.00;;;0.00;;
19388;SDS011;9830;41.876;23.474;2024-01-07T05:08:36;1.77;;;0.47;;
19388;SDS011;9830;41.876;23.474;2024-01-07T05:11:41;0.50;;;0.50;;
19388;SDS011;9830;41.876;23.474;2024-01-07T05:15:01;4.00;;;0.77;;
19388;SDS011;9830;41.876;23.474;2024-01-07T05:17:49;0.00;;;0.00;;
19388;SDS011;9830;41.876;23.474;2024-01-07T05:20:38;0.00;;;0.00;;
19388;SDS011;9830;41.876;23.474;2024-01-07T05:23:49;0.00;;;0.00;;
19388;SDS011;9830;41.876;23.474;2024-01-07T05:27:10;0.53;;;0.53;;
19388;SDS011;9830;41.876;23.474;2024-01-07T05:30:08;0.10;;;0.00;;
19388;SDS011;9830;41.876;23.474;2024-01-07T05:33:09;0.00;;;0.00;;
19388;SDS011;9830;41.876;23.474;2024-01-07T05:36:06;0.20;;;0.20;;
19388;SDS011;9830;41.876;23.474;2024-01-07T05:39:00;0.00;;;0.00;;
19388;SDS011;9830;41.876;23.474;2024-01-07T05:42:03;0.00;;;0.00;;
19388;SDS011;9830;41.876;23.474;2024-01-07T05:45:00;0.00;;;0.00;;
19388;SDS011;9830;41.876;23.474;2024-01-07T05:47:48;0.00;;;0.00;;
19388;SDS011;9830;41.876;23.474;2024-01-07T05:50:51;0.00;;;0.00;;
19388;SDS011;9830;41.876;23.474;2024-01-07T05:53:46;0.83;;;0.20;;
19388;SDS011;9830;41.876;23.474;2024-01-07T05:56:50;0.00;;;0.00;;
19388;SDS011;9830;41.876;23.474;2024-01-07T05:59:53;0.00;;;0.00;;
19388;SDS011;9830;41.876;23.474;2024-01-07T06:02:44;0.00;;;0.00;;
19388;SDS011;9830;41.876;23.474;2024-01-07T06:05:38;0.40;;;0.30;;
19388;SDS011;9830;41.876;23.474;2024-01-07T06:08:42;3.50;;;1.40;;
19388;SDS011;9830;41.876;23.474;2024-01-07T06:11:51;0.10;;;0.10;;
19388;SDS011;9830;41.876;23.474;2024-01-07T06:14:46;0.40;;;0.40;;
19388;SDS011;9830;41.876;23.474;2024-01-07T06:17:45;0.00;;;0.00;;
19388;SDS011;9830;41.876;23.474;2024-01-07T06:21:02;0.47;;;0.47;;
19388;SDS011;9830;41.876;23.474;2024-01-07T06:27:34;1.80;;;1.60;;
19388;SDS011;9830;41.876;23.474;2024-01-07T06:30:25;0.37;;;0.37;;
19388;SDS011;9830;41.876;23.474;2024-01-07T06:33:24;1.70;;;0.93;;
19388;SDS011;9830;41.876;23.474;2024-01-07T06:36:20;1.37;;;1.27;;
19388;SDS011;9830;41.876;23.474;2024-01-07T06:39:20;1.20;;;0.73;;
19388;SDS011;9830;41.876;23.474;2024-01-07T06:42:12;0.20;;;0.20;;
19388;SDS011;9830;41.876;23.474;2024-01-07T06:44:59;0.00;;;0.00;;
19388;SDS011;9830;41.876;23.474;2024-01-07T06:47:55;0.13;;;0.13;;
19388;SDS011;9830;41.876;23.474;2024-01-07T06:50:47;0.00;;;0.00;;
19388;SDS011;9830;41.876;23.474;2024-01-07T06:54:02;0.00;;;0.00;;
19388;SDS011;9830;41.876;23.474;2024-01-07T06:56:56;0.00;;;0.00;;
19388;SDS011;9830;41.876;23.474;2024-01-07T06:59:55;0.10;;;0.10;;
19388;SDS011;9830;41.876;23.474;2024-01-07T07:02:46;0.60;;;0.50;;
19388;SDS011;9830;41.876;23.474;2024-01-07T07:05:39;0.30;;;0.30;;
19388;SDS011;9830;41.876;23.474;2024-01-07T07:08:38;0.00;;;0.00;;
19388;SDS011;9830;41.876;23.474;2024-01-07T07:11:27;1.30;;;0.93;;
19388;SDS011;9830;41.876;23.474;2024-01-07T07:14:21;0.30;;;0.30;;
19388;SDS011;9830;41.876;23.474;2024-01-07T07:17:29;1.80;;;0.90;;
19388;SDS011;9830;41.876;23.474;2024-01-07T07:20:33;1.00;;;1.00;;
19388;SDS011;9830;41.876;23.474;2024-01-07T07:23:37;2.93;;;1.97;;
19388;SDS011;9830;41.876;23.474;2024-01-07T07:26:34;1.10;;;1.07;;
19388;SDS011;9830;41.876;23.474;2024-01-07T07:29:41;0.80;;;0.80;;
19388;SDS011;9830;41.876;23.474;2024-01-07T07:32:32;14.10;;;1.40;;
19388;SDS011;9830;41.876;23.474;2024-01-07T07:35:26;0.30;;;0.30;;
19388;SDS011;9830;41.876;23.474;2024-01-07T07:38:20;1.40;;;0.93;;
19388;SDS011;9830;41.876;23.474;2024-01-07T07:41:10;0.50;;;0.50;;
19388;SDS011;9830;41.876;23.474;2024-01-07T07:44:14;3.07;;;1.47;;
19388;SDS011;9830;41.876;23.474;2024-01-07T07:47:11;0.53;;;0.30;;
19388;SDS011;9830;41.876;23.474;2024-01-07T07:50:23;0.40;;;0.40;;
19388;SDS011;9830;41.876;23.474;2024-01-07T07:53:30;0.00;;;0.00;;
19388;SDS011;9830;41.876;23.474;2024-01-07T07:56:28;0.00;;;0.00;;
19388;SDS011;9830;41.876;23.474;2024-01-07T07:59:33;0.00;;;0.00;;
19388;SDS011;9830;41.876;23.474;2024-01-07T08:02:24;0.10;;;0.10;;
19388;SDS011;9830;41.876;23.474;2024-01-07T08:05:21;1.60;;;1.03;;
19388;SDS011;9830;41.876;23.474;2024-01-07T08:08:22;0.00;;;0.00;;
19388;SDS011;9830;41.876;23.474;2024-01-07T08:11:09;0.50;;;0.27;;
19388;SDS011;9830;41.876;23.474;2024-01-07T08:13:56;0.00;;;0.00;;
19388;SDS011;9830;41.876;23.474;2024-01-07T08:16:41;0.03;;;0.03;;
19388;SDS011;9830;41.876;23.474;2024-01-07T08:19:35;0.00;;;0.00;;
19388;SDS011;9830;41.876;23.474;2024-01-07T08:22:24;0.17;;;0.10;;
19388;SDS011;9830;41.876;23.474;2024-01-07T08:25:18;0.00;;;0.00;;
19388;SDS011;9830;41.876;23.474;2024-01-07T08:28:07;0.23;;;0.20;;
19388;SDS011;9830;41.876;23.474;2024-01-07T08:30:58;0.00;;;0.00;;
19388;SDS011;9830;41.876;23.474;2024-01-07T08:34:23;0.17;;;0.17;;
19388;SDS011;9830;41.876;23.474;2024-01-07T08:40:48;0.10;;;0.10;;
19388;SDS011;9830;41.876;23.474;2024-01-07T08:46:30;0.00;;;0.00;;
19388;SDS011;9830;41.876;23.474;2024-01-07T08:49:15;0.00;;;0.00;;
19388;SDS011;9830;41.876;23.474;2024-01-07T08:52:14;0.00;;;0.00;;
19388;SDS011;9830;41.876;23.474;2024-01-07T08:55:01;2.37;;;0.87;;
19388;SDS011;9830;41.876;23.474;2024-01-07T08:58:15;0.00;;;0.00;;
19388;SDS011;9830;41.876;23.474;2024-01-07T09:04:44;0.00;;;0.00;;
19388;SDS011;9830;41.876;23.474;2024-01-07T09:07:27;0.00;;;0.00;;
19388;SDS011;9830;41.876;23.474;2024-01-07T09:10:16;0.00;;;0.00;;
19388;SDS011;9830;41.876;23.474;2024-01-07T09:13:05;0.00;;;0.00;;
19388;SDS011;9830;41.876;23.474;2024-01-07T09:15:43;0.00;;;0.00;;
19388;SDS011;9830;41.876;23.474;2024-01-07T09:18:59;0.07;;;0.07;;
19388;SDS011;9830;41.876;23.474;2024-01-07T09:25:47;0.17;;;0.17;;
19388;SDS011;9830;41.876;23.474;2024-01-07T09:28:43;0.33;;;0.33;;
19388;SDS011;9830;41.876;23.474;2024-01-07T09:31:34;0.00;;;0.00;;
19388;SDS011;9830;41.876;23.474;2024-01-07T09:35:11;0.20;;;0.13;;
19388;SDS011;9830;41.876;23.474;2024-01-07T09:38:09;0.00;;;0.00;;
19388;SDS011;9830;41.876;23.474;2024-01-07T09:40:54;0.00;;;0.00;;
19388;SDS011;9830;41.876;23.474;2024-01-07T09:43:39;0.10;;;0.10;;
19388;SDS011;9830;41.876;23.474;2024-01-07T09:46:33;0.00;;;0.00;;
19388;SDS011;9830;41.876;23.474;2024-01-07T09:49:30;0.60;;;0.33;;
19388;SDS011;9830;41.876;23.474;2024-01-07T09:59:06;0.00;;;0.00;;
19388;SDS011;9830;41.876;23.474;2024-01-07T10:02:05;0.00;;;0.00;;
19388;SDS011;9830;41.876;23.474;2024-01-07T10:05:07;0.10;;;0.10;;
19388;SDS011;9830;41.876;23.474;2024-01-07T10:08:07;0.83;;;0.63;;
19388;SDS011;9830;41.876;23.474;2024-01-07T10:11:08;0.13;;;0.13;;
19388;SDS011;9830;41.876;23.474;2024-01-07T10:14:11;0.00;;;0.00;;
19388;SDS011;9830;41.876;23.474;2024-01-07T10:17:23;0.00;;;0.00;;
19388;SDS011;9830;41.876;23.474;2024-01-07T10:20:24;0.03;;;0.03;;
19388;SDS011;9830;41.876;23.474;2024-01-07T10:26:26;0.00;;;0.00;;
19388;SDS011;9830;41.876;23.474;2024-01-07T10:29:36;0.07;;;0.07;;
19388;SDS011;9830;41.876;23.474;2024-01-07T10:32:28;0.10;;;0.10;;
19388;SDS011;9830;41.876;23.474;2024-01-07T10:35:12;0.30;;;0.30;;
19388;SDS011;9830;41.876;23.474;2024-01-07T10:38:10;0.10;;;0.10;;
19388;SDS011;9830;41.876;23.474;2024-01-07T10:41:27;2.00;;;0.40;;
19388;SDS011;9830;41.876;23.474;2024-01-07T10:44:31;0.00;;;0.00;;
19388;SDS011;9830;41.876;23.474;2024-01-07T10:47:31;1.23;;;0.33;;
19388;SDS011;9830;41.876;23.474;2024-01-07T10:50:37;0.00;;;0.00;;
19388;SDS011;9830;41.876;23.474;2024-01-07T10:53:42;0.00;;;0.00;;
19388;SDS011;9830;41.876;23.474;2024-01-07T10:56:51;0.00;;;0.00;;
19388;SDS011;9830;41.876;23.474;2024-01-07T10:59:50;0.00;;;0.00;;
19388;SDS011;9830;41.876;23.474;2024-01-07T11:03:09;0.00;;;0.00;;
19388;SDS011;9830;41.876;23.474;2024-01-07T11:12:23;4.03;;;0.63;;
19388;SDS011;9830;41.876;23.474;2024-01-07T11:18:46;0.00;;;0.00;;
19388;SDS011;9830;41.876;23.474;2024-01-07T11:21:35;0.00;;;0.00;;
19388;SDS011;9830;41.876;23.474;2024-01-07T11:24:49;0.00;;;0.00;;
19388;SDS011;9830;41.876;23.474;2024-01-07T11:27:59;0.00;;;0.00;;
19388;SDS011;9830;41.876;23.474;2024-01-07T11:31:00;0.10;;;0.10;;
19388;SDS011;9830;41.876;23.474;2024-01-07T11:34:06;0.27;;;0.27;;
19388;SDS011;9830;41.876;23.474;2024-01-07T11:37:29;0.13;;;0.13;;
19388;SDS011;9830;41.876;23.474;2024-01-07T11:40:27;0.20;;;0.20;;
19388;SDS011;9830;41.876;23.474;2024-01-07T11:43:29;0.00;;;0.00;;
19388;SDS011;9830;41.876;23.474;2024-01-07T11:46:16;0.00;;;0.00;;
19388;SDS011;9830;41.876;23.474;2024-01-07T11:49:15;0.30;;;0.27;;
19388;SDS011;9830;41.876;23.474;2024-01-07T11:52:07;0.03;;;0.03;;
19388;SDS011;9830;41.876;23.474;2024-01-07T11:55:03;0.00;;;0.00;;
19388;SDS011;9830;41.876;23.474;2024-01-07T12:01:22;0.00;;;0.00;;
19388;SDS011;9830;41.876;23.474;2024-01-07T12:04:21;0.10;;;0.10;;
19388;SDS011;9830;41.876;23.474;2024-01-07T12:07:30;0.00;;;0.00;;
19388;SDS011;9830;41.876;23.474;2024-01-07T12:10:22;0.73;;;0.50;;
19388;SDS011;9830;41.876;23.474;2024-01-07T12:13:17;0.00;;;0.00;;
19388;SDS011;9830;41.876;23.474;2024-01-07T12:16:21;0.30;;;0.30;;
19388;SDS011;9830;41.876;23.474;2024-01-07T12:19:21;0.20;;;0.20;;
19388;SDS011;9830;41.876;23.474;2024-01-07T12:22:21;2.30;;;0.20;;
19388;SDS011;9830;41.876;23.474;2024-01-07T12:25:11;0.00;;;0.00;;
19388;SDS011;9830;41.876;23.474;2024-01-07T12:28:30;0.00;;;0.00;;
19388;SDS011;9830;41.876;23.474;2024-01-07T12:31:37;0.10;;;0.10;;
19388;SDS011;9830;41.876;23.474;2024-01-07T12:34:29;0.00;;;0.00;;
19388;SDS011;9830;41.876;23.474;2024-01-07T12:37:33;0.00;;;0.00;;
19388;SDS011;9830;41.876;23.474;2024-01-07T12:40:30;0.00;;;0.00;;
19388;SDS011;9830;41.876;23.474;2024-01-07T12:43:39;0.00;;;0.00;;
19388;SDS011;9830;41.876;23.474;2024-01-07T12:46:46;0.00;;;0.00;;
19388;SDS011;9830;41.876;23.474;2024-01-07T12:49:51;0.00;;;0.00;;
19388;SDS011;9830;41.876;23.474;2024-01-07T12:53:07;0.00;;;0.00;;
19388;SDS011;9830;41.876;23.474;2024-01-07T12:56:07;0.20;;;0.20;;
19388;SDS011;9830;41.876;23.474;2024-01-07T12:59:26;0.20;;;0.20;;
19388;SDS011;9830;41.876;23.474;2024-01-07T13:02:57;0.10;;;0.10;;
19388;SDS011;9830;41.876;23.474;2024-01-07T13:05:53;0.00;;;0.00;;
19388;SDS011;9830;41.876;23.474;2024-01-07T13:09:05;0.83;;;0.83;;
19388;SDS011;9830;41.876;23.474;2024-01-07T13:12:04;0.63;;;0.63;;
19388;SDS011;9830;41.876;23.474;2024-01-07T13:15:04;2.30;;;1.60;;
19388;SDS011;9830;41.876;23.474;2024-01-07T13:17:53;6.23;;;1.07;;
19388;SDS011;9830;41.876;23.474;2024-01-07T13:20:52;3.30;;;1.47;;
19388;SDS011;9830;41.876;23.474;2024-01-07T13:26:48;4.50;;;2.00;;
19388;SDS011;9830;41.876;23.474;2024-01-07T13:29:40;1.20;;;1.20;;
19388;SDS011;9830;41.876;23.474;2024-01-07T13:32:42;0.80;;;0.80;;
19388;SDS011;9830;41.876;23.474;2024-01-07T13:35:52;1.60;;;1.47;;
19388;SDS011;9830;41.876;23.474;2024-01-07T13:38:51;0.97;;;0.97;;
19388;SDS011;9830;41.876;23.474;2024-01-07T13:41:53;0.23;;;0.23;;
19388;SDS011;9830;41.876;23.474;2024-01-07T13:45:06;4.63;;;2.27;;
19388;SDS011;9830;41.876;23.474;2024-01-07T13:48:15;0.43;;;0.43;;
19388;SDS011;9830;41.876;23.474;2024-01-07T13:51:19;0.10;;;0.10;;
19388;SDS011;9830;41.876;23.474;2024-01-07T13:54:23;0.10;;;0.10;;
19388;SDS011;9830;41.876;23.474;2024-01-07T13:57:15;0.10;;;0.10;;
19388;SDS011;9830;41.876;23.474;2024-01-07T14:00:11;0.00;;;0.00;;
19388;SDS011;9830;41.876;23.474;2024-01-07T14:06:24;0.13;;;0.13;;
19388;SDS011;9830;41.876;23.474;2024-01-07T14:09:09;0.20;;;0.20;;
19388;SDS011;9830;41.876;23.474;2024-01-07T14:12:06;0.00;;;0.00;;
19388;SDS011;9830;41.876;23.474;2024-01-07T14:15:01;0.57;;;0.30;;
19388;SDS011;9830;41.876;23.474;2024-01-07T14:17:50;0.50;;;0.50;;
19388;SDS011;9830;41.876;23.474;2024-01-07T14:20:51;0.83;;;0.50;;
19388;SDS011;9830;41.876;23.474;2024-01-07T14:23:42;2.47;;;1.53;;
19388;SDS011;9830;41.876;23.474;2024-01-07T14:26:32;1.77;;;1.67;;
19388;SDS011;9830;41.876;23.474;2024-01-07T14:29:21;2.63;;;1.70;;
19388;SDS011;9830;41.876;23.474;2024-01-07T14:32:09;4.00;;;2.27;;
19388;SDS011;9830;41.876;23.474;2024-01-07T14:34:51;2.27;;;1.07;;
19388;SDS011;9830;41.876;23.474;2024-01-07T14:37:35;2.70;;;1.70;;
19388;SDS011;9830;41.876;23.474;2024-01-07T14:40:26;3.60;;;3.27;;
19388;SDS011;9830;41.876;23.474;2024-01-07T14:43:23;4.27;;;3.10;;
19388;SDS011;9830;41.876;23.474;2024-01-07T14:46:12;6.30;;;3.80;;
19388;SDS011;9830;41.876;23.474;2024-01-07T14:49:09;5.00;;;4.00;;
19388;SDS011;9830;41.876;23.474;2024-01-07T14:55:01;7.97;;;2.33;;
19388;SDS011;9830;41.876;23.474;2024-01-07T14:57:54;5.13;;;3.73;;
19388;SDS011;9830;41.876;23.474;2024-01-07T15:03:59;2.43;;;2.30;;
19388;SDS011;9830;41.876;23.474;2024-01-07T15:06:45;5.50;;;2.97;;
19388;SDS011;9830;41.876;23.474;2024-01-07T15:09:52;0.93;;;0.93;;
19388;SDS011;9830;41.876;23.474;2024-01-07T15:12:55;3.03;;;2.70;;
19388;SDS011;9830;41.876;23.474;2024-01-07T15:15:47;3.23;;;1.97;;
19388;SDS011;9830;41.876;23.474;2024-01-07T15:18:37;2.40;;;2.20;;
19388;SDS011;9830;41.876;23.474;2024-01-07T15:21:37;1.93;;;1.67;;
19388;SDS011;9830;41.876;23.474;2024-01-07T15:24:28;1.27;;;1.27;;
19388;SDS011;9830;41.876;23.474;2024-01-07T15:27:13;1.70;;;1.60;;
19388;SDS011;9830;41.876;23.474;2024-01-07T15:30:05;5.20;;;2.10;;
19388;SDS011;9830;41.876;23.474;2024-01-07T15:32:54;4.13;;;2.70;;
19388;SDS011;9830;41.876;23.474;2024-01-07T15:35:53;1.70;;;1.60;;
19388;SDS011;9830;41.876;23.474;2024-01-07T15:38:43;3.00;;;2.37;;
19388;SDS011;9830;41.876;23.474;2024-01-07T15:41:40;2.57;;;2.27;;
19388;SDS011;9830;41.876;23.474;2024-01-07T15:44:35;1.10;;;0.87;;
19388;SDS011;9830;41.876;23.474;2024-01-07T15:47:21;1.03;;;1.00;;
19388;SDS011;9830;41.876;23.474;2024-01-07T15:50:26;0.80;;;0.80;;
19388;SDS011;9830;41.876;23.474;2024-01-07T15:53:14;0.40;;;0.40;;
19388;SDS011;9830;41.876;23.474;2024-01-07T15:56:23;0.30;;;0.30;;
19388;SDS011;9830;41.876;23.474;2024-01-07T15:59:12;5.97;;;1.57;;
19388;SDS011;9830;41.876;23.474;2024-01-07T16:02:07;3.73;;;1.40;;
19388;SDS011;9830;41.876;23.474;2024-01-07T16:05:22;2.30;;;1.80;;
19388;SDS011;9830;41.876;23.474;2024-01-07T16:08:18;6.20;;;2.43;;
19388;SDS011;9830;41.876;23.474;2024-01-07T16:11:18;1.27;;;1.20;;
19388;SDS011;9830;41.876;23.474;2024-01-07T16:14:10;2.70;;;2.43;;
19388;SDS011;9830;41.876;23.474;2024-01-07T16:17:25;9.43;;;1.97;;
19388;SDS011;9830;41.876;23.474;2024-01-07T16:20:20;10.93;;;2.67;;
19388;SDS011;9830;41.876;23.474;2024-01-07T16:23:17;3.97;;;2.90;;
19388;SDS011;9830;41.876;23.474;2024-01-07T16:26:08;5.83;;;4.57;;
19388;SDS011;9830;41.876;23.474;2024-01-07T16:29:05;4.73;;;3.67;;
19388;SDS011;9830;41.876;23.474;2024-01-07T16:32:02;13.93;;;3.73;;
19388;SDS011;9830;41.876;23.474;2024-01-07T16:34:57;3.00;;;2.80;;
19388;SDS011;9830;41.876;23.474;2024-01-07T16:37:56;7.30;;;4.00;;
19388;SDS011;9830;41.876;23.474;2024-01-07T16:40:43;7.40;;;5.27;;
19388;SDS011;9830;41.876;23.474;2024-01-07T16:44:05;8.43;;;6.20;;
19388;SDS011;9830;41.876;23.474;2024-01-07T16:47:02;11.10;;;3.90;;
19388;SDS011;9830;41.876;23.474;2024-01-07T16:50:12;5.30;;;4.33;;
19388;SDS011;9830;41.876;23.474;2024-01-07T16:53:03;10.13;;;6.10;;
19388;SDS011;9830;41.876;23.474;2024-01-07T16:55:59;3.13;;;2.83;;
19388;SDS011;9830;41.876;23.474;2024-01-07T16:58:49;2.90;;;2.70;;
19388;SDS011;9830;41.876;23.474;2024-01-07T17:01:33;6.60;;;3.30;;
19388;SDS011;9830;41.876;23.474;2024-01-07T17:04:28;2.30;;;0.93;;
19388;SDS011;9830;41.876;23.474;2024-01-07T17:07:15;2.43;;;1.10;;
19388;SDS011;9830;41.876;23.474;2024-01-07T17:11:21;1.63;;;1.53;;
19388;SDS011;9830;41.876;23.474;2024-01-07T17:14:17;0.10;;;0.10;;
19388;SDS011;9830;41.876;23.474;2024-01-07T17:17:12;1.30;;;0.93;;
19388;SDS011;9830;41.876;23.474;2024-01-07T17:20:04;5.00;;;0.97;;
19388;SDS011;9830;41.876;23.474;2024-01-07T17:22:52;2.00;;;0.82;;
19388;SDS011;9830;41.876;23.474;2024-01-07T17:25:50;0.10;;;0.10;;
19388;SDS011;9830;41.876;23.474;2024-01-07T17:28:56;0.10;;;0.10;;
19388;SDS011;9830;41.876;23.474;2024-01-07T17:31:49;0.10;;;0.10;;
19388;SDS011;9830;41.876;23.474;2024-01-07T17:34:43;0.10;;;0.00;;
19388;SDS011;9830;41.876;23.474;2024-01-07T17:37:54;0.73;;;0.33;;
19388;SDS011;9830;41.876;23.474;2024-01-07T17:40:53;0.23;;;0.23;;
19388;SDS011;9830;41.876;23.474;2024-01-07T17:43:53;0.30;;;0.30;;
19388;SDS011;9830;41.876;23.474;2024-01-07T17:50:01;1.60;;;0.50;;
19388;SDS011;9830;41.876;23.474;2024-01-07T17:53:04;19.13;;;1.27;;
19388;SDS011;9830;41.876;23.474;2024-01-07T17:55:56;0.30;;;0.30;;
19388;SDS011;9830;41.876;23.474;2024-01-07T17:58:52;2.23;;;0.53;;
19388;SDS011;9830;41.876;23.474;2024-01-07T18:01:45;0.53;;;0.53;;
19388;SDS011;9830;41.876;23.474;2024-01-07T18:04:54;0.20;;;0.20;;
19388;SDS011;9830;41.876;23.474;2024-01-07T18:07:43;0.20;;;0.20;;
19388;SDS011;9830;41.876;23.474;2024-01-07T18:13:57;0.40;;;0.40;;
19388;SDS011;9830;41.876;23.474;2024-01-07T18:16:57;6.20;;;0.57;;
19388;SDS011;9830;41.876;23.474;2024-01-07T18:19:48;0.37;;;0.37;;
19388;SDS011;9830;41.876;23.474;2024-01-07T18:22:41;1.10;;;0.67;;
19388;SDS011;9830;41.876;23.474;2024-01-07T18:25:28;0.77;;;0.43;;
19388;SDS011;9830;41.876;23.474;2024-01-07T18:28:15;3.70;;;1.20;;
19388;SDS011;9830;41.876;23.474;2024-01-07T18:31:06;0.23;;;0.23;;
19388;SDS011;9830;41.876;23.474;2024-01-07T18:34:10;1.33;;;0.87;;
19388;SDS011;9830;41.876;23.474;2024-01-07T18:37:18;1.70;;;1.60;;
19388;SDS011;9830;41.876;23.474;2024-01-07T18:40:22;5.43;;;2.73;;
19388;SDS011;9830;41.876;23.474;2024-01-07T18:43:16;1.67;;;1.57;;
19388;SDS011;9830;41.876;23.474;2024-01-07T18:46:17;0.87;;;0.87;;
19388;SDS011;9830;41.876;23.474;2024-01-07T18:49:35;1.30;;;1.07;;
19388;SDS011;9830;41.876;23.474;2024-01-07T18:52:49;1.10;;;1.00;;
19388;SDS011;9830;41.876;23.474;2024-01-07T18:55:38;2.77;;;1.67;;
19388;SDS011;9830;41.876;23.474;2024-01-07T18:58:27;2.10;;;2.00;;
19388;SDS011;9830;41.876;23.474;2024-01-07T19:01:27;0.80;;;0.80;;